sensor_id;sensor_type;location;lat;lon;timestamp;temperature;humidity
35920;DHT22;36160;53.370;-6.196;2023-02-28T00:00:19;7.90;99.90
35920;DHT22;36160;53.370;-6.196;2023-02-28T00:02:46;7.90;99.90
35920;DHT22;36160;53.370;-6.196;2023-02-28T00:05:14;7.90;99.90
35920;DHT22;36160;53.370;-6.196;2023-02-28T00:07:40;7.90;99.90
35920;DHT22;36160;53.370;-6.196;2023-02-28T00:10:10;7.90;99.90
35920;DHT22;36160;53.370;-6.196;2023-02-28T00:12:38;7.90;99.90
35920;DHT22;36160;53.370;-6.196;2023-02-28T00:15:08;8.00;99.90
35920;DHT22;36160;53.370;-6.196;2023-02-28T00:17:35;7.90;99.90
35920;DHT22;36160;53.370;-6.196;2023-02-28T00:20:00;8.00;99.90
35920;DHT22;36160;53.370;-6.196;2023-02-28T00:22:30;7.90;99.90
35920;DHT22;36160;53.370;-6.196;2023-02-28T00:24:55;8.00;99.90
35920;DHT22;36160;53.370;-6.196;2023-02-28T00:27:21;8.00;99.90
35920;DHT22;36160;53.370;-6.196;2023-02-28T00:29:47;8.00;99.90
35920;DHT22;36160;53.370;-6.196;2023-02-28T00:32:12;8.00;99.90
35920;DHT22;36160;53.370;-6.196;2023-02-28T00:34:38;8.00;99.90
35920;DHT22;36160;53.370;-6.196;2023-02-28T00:37:09;8.10;99.90
35920;DHT22;36160;53.370;-6.196;2023-02-28T00:39:36;8.10;99.90
35920;DHT22;36160;53.370;-6.196;2023-02-28T00:42:03;8.00;99.90
35920;DHT22;36160;53.370;-6.196;2023-02-28T00:44:30;8.00;99.90
35920;DHT22;36160;53.370;-6.196;2023-02-28T00:46:56;8.00;99.90
35920;DHT22;36160;53.370;-6.196;2023-02-28T00:49:22;8.10;99.90
35920;DHT22;36160;53.370;-6.196;2023-02-28T00:51:48;8.10;99.90
35920;DHT22;36160;53.370;-6.196;2023-02-28T00:54:14;8.10;99.90
35920;DHT22;36160;53.370;-6.196;2023-02-28T00:56:39;8.10;99.90
35920;DHT22;36160;53.370;-6.196;2023-02-28T00:59:05;8.10;99.90
35920;DHT22;36160;53.370;-6.196;2023-02-28T01:01:32;8.10;99.90
35920;DHT22;36160;53.370;-6.196;2023-02-28T01:03:57;8.10;99.90
35920;DHT22;36160;53.370;-6.196;2023-02-28T01:06:23;8.00;99.90
35920;DHT22;36160;53.370;-6.196;2023-02-28T01:08:49;8.10;99.90
35920;DHT22;36160;53.370;-6.196;2023-02-28T01:11:16;8.10;99.90
35920;DHT22;36160;53.370;-6.196;2023-02-28T01:13:43;8.10;99.90
35920;DHT22;36160;53.370;-6.196;2023-02-28T01:16:09;8.10;99.90
35920;DHT22;36160;53.370;-6.196;2023-02-28T01:18:36;8.10;99.90
35920;DHT22;36160;53.370;-6.196;2023-02-28T01:21:11;8.10;99.90
35920;DHT22;36160;53.370;-6.196;2023-02-28T01:23:38;8.10;99.90
35920;DHT22;36160;53.370;-6.196;2023-02-28T01:26:14;8.10;99.90
35920;DHT22;36160;53.370;-6.196;2023-02-28T01:28:41;8.10;99.90
35920;DHT22;36160;53.370;-6.196;2023-02-28T01:31:07;8.10;99.90
35920;DHT22;36160;53.370;-6.196;2023-02-28T01:33:33;8.10;99.90
35920;DHT22;36160;53.370;-6.196;2023-02-28T01:36:01;8.10;99.90
35920;DHT22;36160;53.370;-6.196;2023-02-28T01:38:27;8.10;99.90
35920;DHT22;36160;53.370;-6.196;2023-02-28T01:40:53;8.10;99.90
35920;DHT22;36160;53.370;-6.196;2023-02-28T01:43:27;8.10;99.90
35920;DHT22;36160;53.370;-6.196;2023-02-28T01:45:55;8.10;99.90
35920;DHT22;36160;53.370;-6.196;2023-02-28T01:48:27;8.10;99.90
35920;DHT22;36160;53.370;-6.196;2023-02-28T01:50:54;8.10;99.90
35920;DHT22;36160;53.370;-6.196;2023-02-28T01:53:27;8.10;99.90
35920;DHT22;36160;53.370;-6.196;2023-02-28T01:55:54;8.10;99.90
35920;DHT22;36160;53.370;-6.196;2023-02-28T01:58:20;8.10;99.90
35920;DHT22;36160;53.370;-6.196;2023-02-28T02:00:46;8.10;99.90
35920;DHT22;36160;53.370;-6.196;2023-02-28T02:03:15;8.10;99.90
35920;DHT22;36160;53.370;-6.196;2023-02-28T02:05:44;8.10;99.90
35920;DHT22;36160;53.370;-6.196;2023-02-28T02:08:25;8.10;99.90
35920;DHT22;36160;53.370;-6.196;2023-02-28T02:10:57;8.00;99.90
35920;DHT22;36160;53.370;-6.196;2023-02-28T02:19:14;8.00;99.90
35920;DHT22;36160;53.370;-6.196;2023-02-28T02:30:55;8.00;99.90
35920;DHT22;36160;53.370;-6.196;2023-02-28T02:36:45;8.00;99.90
35920;DHT22;36160;53.370;-6.196;2023-02-28T02:42:01;8.00;99.90
35920;DHT22;36160;53.370;-6.196;2023-02-28T02:44:36;8.00;99.90
35920;DHT22;36160;53.370;-6.196;2023-02-28T02:47:09;8.00;99.90
35920;DHT22;36160;53.370;-6.196;2023-02-28T02:49:38;8.00;99.90
35920;DHT22;36160;53.370;-6.196;2023-02-28T02:52:08;8.00;99.90
35920;DHT22;36160;53.370;-6.196;2023-02-28T02:54:41;8.00;99.90
35920;DHT22;36160;53.370;-6.196;2023-02-28T02:57:25;8.00;99.90
35920;DHT22;36160;53.370;-6.196;2023-02-28T02:59:54;8.00;99.90
35920;DHT22;36160;53.370;-6.196;2023-02-28T03:02:21;8.00;99.90
35920;DHT22;36160;53.370;-6.196;2023-02-28T03:05:01;7.90;99.90
35920;DHT22;36160;53.370;-6.196;2023-02-28T03:07:28;7.90;99.90
35920;DHT22;36160;53.370;-6.196;2023-02-28T03:09:55;7.90;99.90
35920;DHT22;36160;53.370;-6.196;2023-02-28T03:12:28;8.00;99.90
35920;DHT22;36160;53.370;-6.196;2023-02-28T03:15:08;8.00;99.90
35920;DHT22;36160;53.370;-6.196;2023-02-28T03:23:41;7.90;99.90
35920;DHT22;36160;53.370;-6.196;2023-02-28T03:26:13;7.90;99.90
35920;DHT22;36160;53.370;-6.196;2023-02-28T03:28:43;7.90;99.90
35920;DHT22;36160;53.370;-6.196;2023-02-28T03:34:13;7.90;99.90
35920;DHT22;36160;53.370;-6.196;2023-02-28T03:36:47;7.90;99.90
35920;DHT22;36160;53.370;-6.196;2023-02-28T03:39:21;7.90;99.90
35920;DHT22;36160;53.370;-6.196;2023-02-28T03:41:56;7.90;99.90
35920;DHT22;36160;53.370;-6.196;2023-02-28T03:44:34;7.90;99.90
35920;DHT22;36160;53.370;-6.196;2023-02-28T03:47:04;7.90;99.90
35920;DHT22;36160;53.370;-6.196;2023-02-28T03:49:54;7.80;99.90
35920;DHT22;36160;53.370;-6.196;2023-02-28T03:52:27;7.90;99.90
35920;DHT22;36160;53.370;-6.196;2023-02-28T03:55:00;7.80;99.90
35920;DHT22;36160;53.370;-6.196;2023-02-28T03:57:43;7.90;99.90
35920;DHT22;36160;53.370;-6.196;2023-02-28T04:00:16;7.90;99.90
35920;DHT22;36160;53.370;-6.196;2023-02-28T04:02:42;7.90;99.90
35920;DHT22;36160;53.370;-6.196;2023-02-28T04:05:08;7.90;99.90
35920;DHT22;36160;53.370;-6.196;2023-02-28T04:07:34;7.90;99.90
35920;DHT22;36160;53.370;-6.196;2023-02-28T04:10:00;8.00;99.90
35920;DHT22;36160;53.370;-6.196;2023-02-28T04:12:25;7.90;99.90
35920;DHT22;36160;53.370;-6.196;2023-02-28T04:14:51;7.90;99.90
35920;DHT22;36160;53.370;-6.196;2023-02-28T04:17:17;7.90;99.90
35920;DHT22;36160;53.370;-6.196;2023-02-28T04:19:43;7.90;99.90
35920;DHT22;36160;53.370;-6.196;2023-02-28T04:22:09;7.90;99.90
35920;DHT22;36160;53.370;-6.196;2023-02-28T04:24:36;7.90;99.90
35920;DHT22;36160;53.370;-6.196;2023-02-28T04:27:02;7.90;99.90
35920;DHT22;36160;53.370;-6.196;2023-02-28T04:29:30;7.90;99.90
35920;DHT22;36160;53.370;-6.196;2023-02-28T04:31:57;7.90;99.90
35920;DHT22;36160;53.370;-6.196;2023-02-28T04:34:25;7.90;99.90
35920;DHT22;36160;53.370;-6.196;2023-02-28T04:36:51;7.90;99.90
35920;DHT22;36160;53.370;-6.196;2023-02-28T04:39:19;7.90;99.90
35920;DHT22;36160;53.370;-6.196;2023-02-28T04:41:45;7.80;99.90
35920;DHT22;36160;53.370;-6.196;2023-02-28T04:44:11;7.90;99.90
35920;DHT22;36160;53.370;-6.196;2023-02-28T04:46:37;7.80;99.90
35920;DHT22;36160;53.370;-6.196;2023-02-28T04:49:02;7.90;99.90
35920;DHT22;36160;53.370;-6.196;2023-02-28T04:51:28;7.90;99.90
35920;DHT22;36160;53.370;-6.196;2023-02-28T04:53:54;7.80;99.90
35920;DHT22;36160;53.370;-6.196;2023-02-28T04:56:21;7.80;99.90
35920;DHT22;36160;53.370;-6.196;2023-02-28T04:58:47;7.80;99.90
35920;DHT22;36160;53.370;-6.196;2023-02-28T05:01:26;7.70;99.90
35920;DHT22;36160;53.370;-6.196;2023-02-28T05:03:54;7.60;99.90
35920;DHT22;36160;53.370;-6.196;2023-02-28T05:06:21;7.50;99.90
35920;DHT22;36160;53.370;-6.196;2023-02-28T05:08:49;7.40;99.90
35920;DHT22;36160;53.370;-6.196;2023-02-28T05:11:29;7.30;99.90
35920;DHT22;36160;53.370;-6.196;2023-02-28T05:14:00;7.20;99.90
35920;DHT22;36160;53.370;-6.196;2023-02-28T05:16:26;7.20;99.90
35920;DHT22;36160;53.370;-6.196;2023-02-28T05:18:52;7.20;99.90
35920;DHT22;36160;53.370;-6.196;2023-02-28T05:21:34;7.10;99.90
35920;DHT22;36160;53.370;-6.196;2023-02-28T05:24:03;7.10;99.90
35920;DHT22;36160;53.370;-6.196;2023-02-28T05:26:29;7.10;99.90
35920;DHT22;36160;53.370;-6.196;2023-02-28T05:28:55;7.10;99.90
35920;DHT22;36160;53.370;-6.196;2023-02-28T05:31:22;7.20;99.90
35920;DHT22;36160;53.370;-6.196;2023-02-28T05:33:48;7.20;99.90
35920;DHT22;36160;53.370;-6.196;2023-02-28T05:36:13;7.10;99.90
35920;DHT22;36160;53.370;-6.196;2023-02-28T05:38:39;7.20;99.90
35920;DHT22;36160;53.370;-6.196;2023-02-28T05:41:06;7.20;99.90
35920;DHT22;36160;53.370;-6.196;2023-02-28T05:43:32;7.20;99.90
35920;DHT22;36160;53.370;-6.196;2023-02-28T05:45:58;7.10;99.90
35920;DHT22;36160;53.370;-6.196;2023-02-28T05:48:24;7.10;99.90
35920;DHT22;36160;53.370;-6.196;2023-02-28T05:50:51;7.00;99.90
35920;DHT22;36160;53.370;-6.196;2023-02-28T05:53:16;7.00;99.90
35920;DHT22;36160;53.370;-6.196;2023-02-28T05:55:42;7.00;99.90
35920;DHT22;36160;53.370;-6.196;2023-02-28T05:58:08;7.00;99.90
35920;DHT22;36160;53.370;-6.196;2023-02-28T06:00:33;7.00;99.90
35920;DHT22;36160;53.370;-6.196;2023-02-28T06:02:59;7.00;99.90
35920;DHT22;36160;53.370;-6.196;2023-02-28T06:05:27;6.90;99.90
35920;DHT22;36160;53.370;-6.196;2023-02-28T06:07:53;6.90;99.90
35920;DHT22;36160;53.370;-6.196;2023-02-28T06:10:19;6.90;99.90
35920;DHT22;36160;53.370;-6.196;2023-02-28T06:12:45;7.00;99.90
35920;DHT22;36160;53.370;-6.196;2023-02-28T06:15:15;7.00;99.90
35920;DHT22;36160;53.370;-6.196;2023-02-28T06:17:42;7.00;99.90
35920;DHT22;36160;53.370;-6.196;2023-02-28T06:20:09;7.00;99.90
35920;DHT22;36160;53.370;-6.196;2023-02-28T06:22:36;6.90;99.90
35920;DHT22;36160;53.370;-6.196;2023-02-28T06:25:03;7.00;99.90
35920;DHT22;36160;53.370;-6.196;2023-02-28T06:27:30;7.00;99.90
35920;DHT22;36160;53.370;-6.196;2023-02-28T06:29:56;7.00;99.90
35920;DHT22;36160;53.370;-6.196;2023-02-28T06:32:22;6.90;99.90
35920;DHT22;36160;53.370;-6.196;2023-02-28T06:34:48;6.90;99.90
35920;DHT22;36160;53.370;-6.196;2023-02-28T06:37:14;6.90;99.90
35920;DHT22;36160;53.370;-6.196;2023-02-28T06:39:40;6.90;99.90
35920;DHT22;36160;53.370;-6.196;2023-02-28T06:42:05;6.90;99.90
35920;DHT22;36160;53.370;-6.196;2023-02-28T06:44:31;6.90;99.90
35920;DHT22;36160;53.370;-6.196;2023-02-28T06:47:01;6.90;99.90
35920;DHT22;36160;53.370;-6.196;2023-02-28T06:49:29;6.90;99.90
35920;DHT22;36160;53.370;-6.196;2023-02-28T06:51:55;6.80;99.90
35920;DHT22;36160;53.370;-6.196;2023-02-28T06:54:21;6.90;99.90
35920;DHT22;36160;53.370;-6.196;2023-02-28T06:56:46;7.00;99.90
35920;DHT22;36160;53.370;-6.196;2023-02-28T06:59:12;6.90;99.90
35920;DHT22;36160;53.370;-6.196;2023-02-28T07:01:38;7.00;99.90
35920;DHT22;36160;53.370;-6.196;2023-02-28T07:04:05;7.00;99.90
35920;DHT22;36160;53.370;-6.196;2023-02-28T07:06:31;7.00;99.90
35920;DHT22;36160;53.370;-6.196;2023-02-28T07:08:58;7.00;99.90
35920;DHT22;36160;53.370;-6.196;2023-02-28T07:11:25;6.90;99.90
35920;DHT22;36160;53.370;-6.196;2023-02-28T07:13:52;6.90;99.90
35920;DHT22;36160;53.370;-6.196;2023-02-28T07:16:18;6.90;99.90
35920;DHT22;36160;53.370;-6.196;2023-02-28T07:18:45;6.90;99.90
35920;DHT22;36160;53.370;-6.196;2023-02-28T07:21:11;6.90;99.90
35920;DHT22;36160;53.370;-6.196;2023-02-28T07:23:38;6.80;99.90
35920;DHT22;36160;53.370;-6.196;2023-02-28T07:26:10;6.90;99.90
35920;DHT22;36160;53.370;-6.196;2023-02-28T07:28:36;6.90;99.90
35920;DHT22;36160;53.370;-6.196;2023-02-28T07:31:05;6.90;99.90
35920;DHT22;36160;53.370;-6.196;2023-02-28T07:33:30;6.90;99.90
35920;DHT22;36160;53.370;-6.196;2023-02-28T07:36:09;6.80;99.90
35920;DHT22;36160;53.370;-6.196;2023-02-28T07:38:41;6.70;99.90
35920;DHT22;36160;53.370;-6.196;2023-02-28T07:41:07;6.60;99.90
35920;DHT22;36160;53.370;-6.196;2023-02-28T07:43:33;6.60;99.90
35920;DHT22;36160;53.370;-6.196;2023-02-28T07:46:08;6.60;99.90
35920;DHT22;36160;53.370;-6.196;2023-02-28T07:48:34;6.60;99.90
35920;DHT22;36160;53.370;-6.196;2023-02-28T07:51:00;6.60;99.90
35920;DHT22;36160;53.370;-6.196;2023-02-28T07:53:27;6.60;99.90
35920;DHT22;36160;53.370;-6.196;2023-02-28T07:55:57;6.50;99.90
35920;DHT22;36160;53.370;-6.196;2023-02-28T07:58:24;6.60;99.90
35920;DHT22;36160;53.370;-6.196;2023-02-28T08:00:50;6.50;99.90
35920;DHT22;36160;53.370;-6.196;2023-02-28T08:03:18;6.50;99.90
35920;DHT22;36160;53.370;-6.196;2023-02-28T08:05:44;6.50;99.90
35920;DHT22;36160;53.370;-6.196;2023-02-28T08:08:10;6.50;99.90
35920;DHT22;36160;53.370;-6.196;2023-02-28T08:10:36;6.40;99.90
35920;DHT22;36160;53.370;-6.196;2023-02-28T08:13:02;6.60;99.90
35920;DHT22;36160;53.370;-6.196;2023-02-28T08:15:28;6.60;99.90
35920;DHT22;36160;53.370;-6.196;2023-02-28T08:17:54;6.60;99.90
35920;DHT22;36160;53.370;-6.196;2023-02-28T08:20:22;6.70;99.90
35920;DHT22;36160;53.370;-6.196;2023-02-28T08:22:49;6.80;99.90
35920;DHT22;36160;53.370;-6.196;2023-02-28T08:25:15;6.80;99.90
35920;DHT22;36160;53.370;-6.196;2023-02-28T08:27:41;6.90;99.90
35920;DHT22;36160;53.370;-6.196;2023-02-28T08:30:10;6.80;99.90
35920;DHT22;36160;53.370;-6.196;2023-02-28T08:32:36;6.90;99.90
35920;DHT22;36160;53.370;-6.196;2023-02-28T08:35:01;6.90;99.90
35920;DHT22;36160;53.370;-6.196;2023-02-28T08:37:28;6.90;99.90
35920;DHT22;36160;53.370;-6.196;2023-02-28T08:39:54;6.90;99.90
35920;DHT22;36160;53.370;-6.196;2023-02-28T08:42:20;7.00;99.90
35920;DHT22;36160;53.370;-6.196;2023-02-28T08:44:46;7.00;99.90
35920;DHT22;36160;53.370;-6.196;2023-02-28T08:47:12;7.00;99.90
35920;DHT22;36160;53.370;-6.196;2023-02-28T08:49:38;7.00;99.90
35920;DHT22;36160;53.370;-6.196;2023-02-28T08:52:04;7.10;99.90
35920;DHT22;36160;53.370;-6.196;2023-02-28T08:54:30;7.20;99.90
35920;DHT22;36160;53.370;-6.196;2023-02-28T08:56:57;7.30;99.90
35920;DHT22;36160;53.370;-6.196;2023-02-28T08:59:23;7.30;99.90
35920;DHT22;36160;53.370;-6.196;2023-02-28T09:01:49;7.30;99.90
35920;DHT22;36160;53.370;-6.196;2023-02-28T09:04:15;7.40;99.90
35920;DHT22;36160;53.370;-6.196;2023-02-28T09:06:42;7.50;99.90
35920;DHT22;36160;53.370;-6.196;2023-02-28T09:09:10;7.50;99.90
35920;DHT22;36160;53.370;-6.196;2023-02-28T09:11:36;7.40;99.90
35920;DHT22;36160;53.370;-6.196;2023-02-28T09:14:02;7.40;99.90
35920;DHT22;36160;53.370;-6.196;2023-02-28T09:16:30;7.40;99.90
35920;DHT22;36160;53.370;-6.196;2023-02-28T09:18:56;7.40;99.90
35920;DHT22;36160;53.370;-6.196;2023-02-28T09:21:22;7.40;99.90
35920;DHT22;36160;53.370;-6.196;2023-02-28T09:23:49;7.50;99.90
35920;DHT22;36160;53.370;-6.196;2023-02-28T09:26:23;7.60;99.90
35920;DHT22;36160;53.370;-6.196;2023-02-28T09:28:50;7.50;92.60
35920;DHT22;36160;53.370;-6.196;2023-02-28T09:31:23;7.60;97.00
35920;DHT22;36160;53.370;-6.196;2023-02-28T09:33:53;7.50;99.90
35920;DHT22;36160;53.370;-6.196;2023-02-28T09:36:19;7.50;99.90
35920;DHT22;36160;53.370;-6.196;2023-02-28T09:38:45;7.60;86.60
35920;DHT22;36160;53.370;-6.196;2023-02-28T09:41:19;7.60;69.40
35920;DHT22;36160;53.370;-6.196;2023-02-28T09:43:49;7.50;39.60
35920;DHT22;36160;53.370;-6.196;2023-02-28T09:46:34;7.60;28.90
35920;DHT22;36160;53.370;-6.196;2023-02-28T09:49:11;7.80;87.60
35920;DHT22;36160;53.370;-6.196;2023-02-28T09:54:22;8.10;69.10
35920;DHT22;36160;53.370;-6.196;2023-02-28T09:56:49;8.10;18.20
35920;DHT22;36160;53.370;-6.196;2023-02-28T10:04:50;8.20;11.40
35920;DHT22;36160;53.370;-6.196;2023-02-28T10:10:29;8.10;99.90
35920;DHT22;36160;53.370;-6.196;2023-02-28T10:13:01;8.10;99.90
35920;DHT22;36160;53.370;-6.196;2023-02-28T10:15:31;8.10;1.00
35920;DHT22;36160;53.370;-6.196;2023-02-28T10:18:03;8.10;8.50
35920;DHT22;36160;53.370;-6.196;2023-02-28T10:20:33;8.00;99.90
35920;DHT22;36160;53.370;-6.196;2023-02-28T10:26:01;8.10;1.00
35920;DHT22;36160;53.370;-6.196;2023-02-28T10:28:32;8.20;1.00
35920;DHT22;36160;53.370;-6.196;2023-02-28T10:30:58;8.20;1.00
35920;DHT22;36160;53.370;-6.196;2023-02-28T10:33:29;8.30;1.00
35920;DHT22;36160;53.370;-6.196;2023-02-28T10:35:55;8.10;99.90
35920;DHT22;36160;53.370;-6.196;2023-02-28T10:38:27;8.20;1.00
35920;DHT22;36160;53.370;-6.196;2023-02-28T10:41:09;8.30;99.90
35920;DHT22;36160;53.370;-6.196;2023-02-28T10:43:35;8.20;1.00
35920;DHT22;36160;53.370;-6.196;2023-02-28T10:46:09;8.10;99.90
35920;DHT22;36160;53.370;-6.196;2023-02-28T10:51:11;8.00;99.90
35920;DHT22;36160;53.370;-6.196;2023-02-28T10:53:38;8.00;1.00
35920;DHT22;36160;53.370;-6.196;2023-02-28T11:01:41;8.10;35.70
35920;DHT22;36160;53.370;-6.196;2023-02-28T11:04:36;8.00;12.90
35920;DHT22;36160;53.370;-6.196;2023-02-28T11:07:14;7.90;34.10
35920;DHT22;36160;53.370;-6.196;2023-02-28T11:09:44;7.90;50.40
35920;DHT22;36160;53.370;-6.196;2023-02-28T11:20:32;8.30;29.20
35920;DHT22;36160;53.370;-6.196;2023-02-28T11:23:03;8.30;3.90
35920;DHT22;36160;53.370;-6.196;2023-02-28T11:25:37;8.20;1.00
35920;DHT22;36160;53.370;-6.196;2023-02-28T11:36:29;8.40;2.10
35920;DHT22;36160;53.370;-6.196;2023-02-28T11:39:01;8.20;61.70
35920;DHT22;36160;53.370;-6.196;2023-02-28T11:42:00;8.00;93.90
35920;DHT22;36160;53.370;-6.196;2023-02-28T11:47:49;7.90;99.90
35920;DHT22;36160;53.370;-6.196;2023-02-28T11:50:22;7.70;99.90
35920;DHT22;36160;53.370;-6.196;2023-02-28T11:53:00;7.90;99.90
35920;DHT22;36160;53.370;-6.196;2023-02-28T11:55:45;7.90;98.60
35920;DHT22;36160;53.370;-6.196;2023-02-28T11:58:38;8.20;49.00
35920;DHT22;36160;53.370;-6.196;2023-02-28T12:01:27;8.20;77.30
35920;DHT22;36160;53.370;-6.196;2023-02-28T12:04:11;8.30;1.00
35920;DHT22;36160;53.370;-6.196;2023-02-28T12:07:00;8.30;1.00
35920;DHT22;36160;53.370;-6.196;2023-02-28T12:09:40;8.50;1.00
35920;DHT22;36160;53.370;-6.196;2023-02-28T12:19:48;8.50;99.90
35920;DHT22;36160;53.370;-6.196;2023-02-28T12:25:24;8.40;99.90
35920;DHT22;36160;53.370;-6.196;2023-02-28T12:27:56;8.50;99.90
35920;DHT22;36160;53.370;-6.196;2023-02-28T12:30:27;8.70;99.90
35920;DHT22;36160;53.370;-6.196;2023-02-28T12:33:06;8.50;99.90
35920;DHT22;36160;53.370;-6.196;2023-02-28T12:35:48;8.50;99.90
35920;DHT22;36160;53.370;-6.196;2023-02-28T12:38:31;8.30;99.90
35920;DHT22;36160;53.370;-6.196;2023-02-28T12:41:02;8.10;99.90
35920;DHT22;36160;53.370;-6.196;2023-02-28T12:43:36;8.30;99.90
35920;DHT22;36160;53.370;-6.196;2023-02-28T12:48:43;8.40;99.90
35920;DHT22;36160;53.370;-6.196;2023-02-28T12:51:12;8.40;99.90
35920;DHT22;36160;53.370;-6.196;2023-02-28T13:02:28;8.40;99.90
35920;DHT22;36160;53.370;-6.196;2023-02-28T13:10:20;8.00;99.90
35920;DHT22;36160;53.370;-6.196;2023-02-28T13:12:51;8.00;99.90
35920;DHT22;36160;53.370;-6.196;2023-02-28T13:17:49;8.00;99.90
35920;DHT22;36160;53.370;-6.196;2023-02-28T13:22:48;8.10;99.90
35920;DHT22;36160;53.370;-6.196;2023-02-28T13:27:51;8.10;99.90
35920;DHT22;36160;53.370;-6.196;2023-02-28T13:35:45;7.90;99.90
35920;DHT22;36160;53.370;-6.196;2023-02-28T13:49:28;7.90;99.90
35920;DHT22;36160;53.370;-6.196;2023-02-28T14:02:37;7.80;1.00
35920;DHT22;36160;53.370;-6.196;2023-02-28T14:05:20;8.00;1.00
35920;DHT22;36160;53.370;-6.196;2023-02-28T14:07:54;8.00;99.90
35920;DHT22;36160;53.370;-6.196;2023-02-28T14:13:37;8.10;99.90
35920;DHT22;36160;53.370;-6.196;2023-02-28T14:16:54;7.80;99.90
35920;DHT22;36160;53.370;-6.196;2023-02-28T14:19:09;7.80;1.00
35920;DHT22;36160;53.370;-6.196;2023-02-28T14:21:39;7.80;1.00
35920;DHT22;36160;53.370;-6.196;2023-02-28T14:27:11;7.90;99.90
35920;DHT22;36160;53.370;-6.196;2023-02-28T14:35:03;8.00;1.00
35920;DHT22;36160;53.370;-6.196;2023-02-28T14:37:38;7.90;99.90
35920;DHT22;36160;53.370;-6.196;2023-02-28T14:40:37;7.70;99.90
35920;DHT22;36160;53.370;-6.196;2023-02-28T14:43:06;7.90;99.90
35920;DHT22;36160;53.370;-6.196;2023-02-28T14:45:34;7.80;99.90
35920;DHT22;36160;53.370;-6.196;2023-02-28T14:48:05;7.80;99.90
35920;DHT22;36160;53.370;-6.196;2023-02-28T14:50:35;7.70;99.90
35920;DHT22;36160;53.370;-6.196;2023-02-28T14:53:02;7.70;99.90
35920;DHT22;36160;53.370;-6.196;2023-02-28T14:55:32;7.70;99.90
35920;DHT22;36160;53.370;-6.196;2023-02-28T14:58:06;7.70;99.90
35920;DHT22;36160;53.370;-6.196;2023-02-28T15:00:40;7.60;99.90
35920;DHT22;36160;53.370;-6.196;2023-02-28T15:03:35;7.70;99.90
35920;DHT22;36160;53.370;-6.196;2023-02-28T15:06:05;7.70;99.90
35920;DHT22;36160;53.370;-6.196;2023-02-28T15:08:31;7.70;1.00
35920;DHT22;36160;53.370;-6.196;2023-02-28T15:11:02;7.70;1.00
35920;DHT22;36160;53.370;-6.196;2023-02-28T15:13:50;7.60;1.00
35920;DHT22;36160;53.370;-6.196;2023-02-28T15:19:12;7.70;1.00
35920;DHT22;36160;53.370;-6.196;2023-02-28T15:21:44;7.70;1.00
35920;DHT22;36160;53.370;-6.196;2023-02-28T15:24:30;7.70;1.00
35920;DHT22;36160;53.370;-6.196;2023-02-28T15:26:59;7.80;1.00
35920;DHT22;36160;53.370;-6.196;2023-02-28T15:29:28;7.80;1.00
35920;DHT22;36160;53.370;-6.196;2023-02-28T15:32:05;7.80;99.90
35920;DHT22;36160;53.370;-6.196;2023-02-28T15:34:38;7.80;1.00
35920;DHT22;36160;53.370;-6.196;2023-02-28T15:42:31;7.90;99.90
35920;DHT22;36160;53.370;-6.196;2023-02-28T15:44:57;7.80;99.90
35920;DHT22;36160;53.370;-6.196;2023-02-28T15:47:27;7.80;99.90
35920;DHT22;36160;53.370;-6.196;2023-02-28T15:50:03;7.80;99.90
35920;DHT22;36160;53.370;-6.196;2023-02-28T15:52:40;7.70;99.90
35920;DHT22;36160;53.370;-6.196;2023-02-28T15:55:19;7.60;99.90
35920;DHT22;36160;53.370;-6.196;2023-02-28T15:57:49;7.60;99.90
35920;DHT22;36160;53.370;-6.196;2023-02-28T16:00:21;7.60;90.70
35920;DHT22;36160;53.370;-6.196;2023-02-28T16:02:47;7.60;58.80
35920;DHT22;36160;53.370;-6.196;2023-02-28T16:05:24;7.60;99.90
35920;DHT22;36160;53.370;-6.196;2023-02-28T16:07:54;7.60;99.90
35920;DHT22;36160;53.370;-6.196;2023-02-28T16:10:21;7.50;98.50
35920;DHT22;36160;53.370;-6.196;2023-02-28T16:12:48;7.50;27.20
35920;DHT22;36160;53.370;-6.196;2023-02-28T16:15:21;7.40;99.90
35920;DHT22;36160;53.370;-6.196;2023-02-28T16:17:47;7.50;29.00
35920;DHT22;36160;53.370;-6.196;2023-02-28T16:22:39;7.50;99.90
35920;DHT22;36160;53.370;-6.196;2023-02-28T16:25:11;7.50;99.90
35920;DHT22;36160;53.370;-6.196;2023-02-28T16:27:38;7.50;99.90
35920;DHT22;36160;53.370;-6.196;2023-02-28T16:30:15;7.50;99.90
35920;DHT22;36160;53.370;-6.196;2023-02-28T16:32:41;7.50;99.90
35920;DHT22;36160;53.370;-6.196;2023-02-28T16:35:10;7.50;99.90
35920;DHT22;36160;53.370;-6.196;2023-02-28T16:37:36;7.50;99.90
35920;DHT22;36160;53.370;-6.196;2023-02-28T16:40:03;7.50;99.90
35920;DHT22;36160;53.370;-6.196;2023-02-28T16:42:28;7.50;99.90
35920;DHT22;36160;53.370;-6.196;2023-02-28T16:44:56;7.50;99.90
35920;DHT22;36160;53.370;-6.196;2023-02-28T16:47:23;7.40;99.90
35920;DHT22;36160;53.370;-6.196;2023-02-28T16:49:49;7.50;99.90
35920;DHT22;36160;53.370;-6.196;2023-02-28T16:52:15;7.40;99.90
35920;DHT22;36160;53.370;-6.196;2023-02-28T16:54:41;7.30;99.90
35920;DHT22;36160;53.370;-6.196;2023-02-28T16:57:20;7.40;99.90
35920;DHT22;36160;53.370;-6.196;2023-02-28T16:59:47;7.40;99.90
35920;DHT22;36160;53.370;-6.196;2023-02-28T17:02:18;7.40;99.90
35920;DHT22;36160;53.370;-6.196;2023-02-28T17:04:45;7.40;99.90
35920;DHT22;36160;53.370;-6.196;2023-02-28T17:07:13;7.40;99.90
35920;DHT22;36160;53.370;-6.196;2023-02-28T17:09:40;7.40;99.90
35920;DHT22;36160;53.370;-6.196;2023-02-28T17:12:07;7.40;99.90
35920;DHT22;36160;53.370;-6.196;2023-02-28T17:14:33;7.40;99.90
35920;DHT22;36160;53.370;-6.196;2023-02-28T17:17:00;7.40;99.90
35920;DHT22;36160;53.370;-6.196;2023-02-28T17:19:26;7.40;99.90
35920;DHT22;36160;53.370;-6.196;2023-02-28T17:21:53;7.40;99.90
35920;DHT22;36160;53.370;-6.196;2023-02-28T17:24:19;7.40;99.90
35920;DHT22;36160;53.370;-6.196;2023-02-28T17:26:44;7.40;99.90
35920;DHT22;36160;53.370;-6.196;2023-02-28T17:29:16;7.40;99.90
35920;DHT22;36160;53.370;-6.196;2023-02-28T17:31:43;7.30;99.90
35920;DHT22;36160;53.370;-6.196;2023-02-28T17:34:08;7.30;99.90
35920;DHT22;36160;53.370;-6.196;2023-02-28T17:36:34;7.30;99.90
35920;DHT22;36160;53.370;-6.196;2023-02-28T17:39:04;7.20;99.90
35920;DHT22;36160;53.370;-6.196;2023-02-28T17:41:32;7.30;99.90
35920;DHT22;36160;53.370;-6.196;2023-02-28T17:43:58;7.30;99.90
35920;DHT22;36160;53.370;-6.196;2023-02-28T17:46:24;7.30;99.90
35920;DHT22;36160;53.370;-6.196;2023-02-28T17:48:52;7.30;99.90
35920;DHT22;36160;53.370;-6.196;2023-02-28T17:51:23;7.30;99.90
35920;DHT22;36160;53.370;-6.196;2023-02-28T17:53:49;7.30;99.90
35920;DHT22;36160;53.370;-6.196;2023-02-28T17:56:24;7.30;99.90
35920;DHT22;36160;53.370;-6.196;2023-02-28T17:58:51;7.20;99.90
35920;DHT22;36160;53.370;-6.196;2023-02-28T18:01:18;7.30;99.90
35920;DHT22;36160;53.370;-6.196;2023-02-28T18:03:45;7.20;99.90
35920;DHT22;36160;53.370;-6.196;2023-02-28T18:06:39;7.20;99.90
35920;DHT22;36160;53.370;-6.196;2023-02-28T18:09:26;7.20;99.90
35920;DHT22;36160;53.370;-6.196;2023-02-28T18:11:55;7.20;99.90
35920;DHT22;36160;53.370;-6.196;2023-02-28T18:14:23;7.20;99.90
35920;DHT22;36160;53.370;-6.196;2023-02-28T18:16:51;7.20;99.90
35920;DHT22;36160;53.370;-6.196;2023-02-28T18:19:17;7.20;1.00
35920;DHT22;36160;53.370;-6.196;2023-02-28T18:21:45;7.20;1.00
35920;DHT22;36160;53.370;-6.196;2023-02-28T18:24:11;7.20;1.00